createdAt,value
2022-09-28T00:01:22.020Z,7.80
2022-09-28T00:03:51.892Z,7.90
2022-09-28T00:06:22.059Z,8.00
2022-09-28T00:08:52.664Z,8.00
2022-09-28T00:11:21.882Z,8.00
2022-09-28T00:13:51.811Z,8.00
2022-09-28T00:16:23.366Z,8.00
2022-09-28T00:21:22.459Z,8.00
2022-09-28T00:24:15.004Z,7.90
2022-09-28T00:26:50.470Z,7.80
2022-09-28T00:29:22.672Z,7.80
2022-09-28T00:32:03.057Z,7.70
2022-09-28T00:34:33.891Z,7.70
2022-09-28T00:37:03.500Z,7.70
2022-09-28T00:39:35.989Z,7.60
2022-09-28T00:42:05.622Z,7.60
2022-09-28T00:44:41.757Z,7.60
2022-09-28T00:47:45.551Z,7.50
2022-09-28T00:50:25.771Z,7.50
2022-09-28T00:52:53.330Z,7.40
2022-09-28T00:55:44.867Z,7.40
2022-09-28T00:58:19.517Z,6.80
2022-09-28T01:00:48.532Z,8.90
2022-09-28T01:03:17.200Z,7.30
2022-09-28T01:05:45.960Z,7.20
2022-09-28T01:08:14.403Z,7.20
2022-09-28T01:10:43.871Z,7.20
2022-09-28T01:13:13.804Z,7.00
2022-09-28T01:15:59.788Z,7.00
2022-09-28T01:19:00.519Z,6.80
2022-09-28T01:21:49.135Z,6.80
2022-09-28T01:24:43.412Z,6.80
2022-09-28T01:27:14.023Z,6.80
2022-09-28T01:29:53.517Z,10.90
2022-09-28T01:32:35.836Z,6.90
2022-09-28T01:35:26.394Z,6.90
2022-09-28T01:38:05.308Z,6.80
2022-09-28T01:40:35.236Z,6.90
2022-09-28T01:43:06.928Z,6.90
2022-09-28T01:45:49.221Z,6.80
2022-09-28T01:48:24.984Z,6.80
2022-09-28T01:50:58.132Z,6.70
2022-09-28T01:53:32.317Z,6.60
2022-09-28T01:56:10.125Z,6.50
2022-09-28T01:58:44.169Z,6.50
2022-09-28T02:01:31.933Z,6.50
2022-09-28T02:04:14.346Z,3.00
2022-09-28T02:07:12.868Z,6.50
2022-09-28T02:09:58.633Z,6.40
2022-09-28T02:12:48.843Z,6.50
2022-09-28T02:15:36.291Z,6.40
2022-09-28T02:18:04.380Z,6.40
2022-09-28T02:20:34.491Z,6.40
2022-09-28T02:23:04.659Z,6.40
2022-09-28T02:25:45.689Z,6.40
2022-09-28T02:30:43.041Z,6.50
2022-09-28T02:33:20.193Z,6.40
2022-09-28T02:40:57.780Z,6.20
2022-09-28T02:43:45.475Z,6.10
2022-09-28T02:46:35.651Z,8.60
2022-09-28T02:49:31.206Z,6.00
2022-09-28T02:52:23.041Z,6.10
2022-09-28T02:55:06.374Z,6.20
2022-09-28T02:58:12.375Z,6.30
2022-09-28T03:01:07.116Z,6.30
2022-09-28T03:03:47.871Z,6.30
2022-09-28T03:06:44.002Z,6.30
2022-09-28T03:11:53.138Z,6.30
2022-09-28T03:14:21.328Z,6.20
2022-09-28T03:16:57.914Z,5.90
2022-09-28T03:19:33.466Z,5.90
2022-09-28T03:24:29.551Z,5.70
2022-09-28T03:26:57.151Z,5.60
2022-09-28T03:29:24.837Z,8.90
2022-09-28T03:31:58.899Z,5.40
2022-09-28T03:34:26.522Z,5.20
2022-09-28T03:36:54.213Z,5.20
2022-09-28T03:41:49.733Z,5.10
2022-09-28T03:49:16.378Z,4.80
2022-09-28T03:54:49.361Z,4.70
2022-09-28T03:57:17.313Z,4.60
2022-09-28T03:59:44.921Z,4.60
2022-09-28T04:02:12.521Z,4.60
2022-09-28T04:07:08.547Z,4.50
2022-09-28T04:09:36.192Z,4.40
2022-09-28T04:12:04.658Z,4.30
2022-09-28T04:14:33.834Z,4.20
2022-09-28T04:17:01.780Z,4.20
2022-09-28T04:19:31.926Z,4.10
2022-09-28T04:24:46.808Z,4.20
2022-09-28T04:35:01.942Z,4.20
2022-09-28T04:39:59.033Z,4.00
2022-09-28T04:42:26.975Z,3.80
2022-09-28T04:44:54.630Z,4.00
2022-09-28T04:47:22.705Z,3.80
2022-09-28T04:50:22.602Z,3.80
2022-09-28T04:55:54.786Z,3.80
2022-09-28T04:58:23.374Z,3.80
2022-09-28T05:00:51.851Z,3.70
2022-09-28T05:03:42.529Z,3.60
2022-09-28T05:06:28.653Z,3.60
2022-09-28T05:13:58.507Z,3.50
2022-09-28T05:16:26.887Z,3.50
2022-09-28T05:19:12.959Z,3.50
2022-09-28T05:21:46.028Z,3.50
2022-09-28T05:24:13.870Z,3.50
2022-09-28T05:29:12.590Z,3.30
2022-09-28T05:31:40.445Z,3.40
2022-09-28T05:34:19.842Z,3.30
2022-09-28T05:36:47.543Z,3.40
2022-09-28T05:39:15.196Z,3.40
2022-09-28T05:41:42.821Z,3.40
2022-09-28T05:46:38.615Z,3.50
2022-09-28T05:49:06.246Z,3.50
2022-09-28T05:51:33.798Z,3.50
2022-09-28T05:54:05.689Z,3.60
2022-09-28T05:59:06.292Z,3.70
2022-09-28T06:14:09.689Z,3.70
2022-09-28T06:16:41.644Z,3.60
2022-09-28T06:19:12.396Z,3.60
2022-09-28T06:22:08.866Z,3.60
2022-09-28T06:29:40.907Z,3.60
2022-09-28T06:34:38.687Z,3.80
2022-09-28T06:37:06.305Z,3.80
2022-09-28T06:39:34.215Z,3.80
2022-09-28T06:42:03.399Z,3.90
2022-09-28T06:44:51.893Z,4.00
2022-09-28T06:50:14.551Z,4.00
2022-09-28T06:53:07.341Z,4.10
2022-09-28T06:55:56.165Z,4.20
2022-09-28T07:00:52.377Z,4.20
2022-09-28T07:03:22.804Z,4.30
2022-09-28T07:06:12.148Z,4.30
2022-09-28T07:12:13.213Z,4.30
2022-09-28T07:15:02.532Z,4.30
2022-09-28T07:20:15.515Z,4.40
2022-09-28T07:22:47.996Z,4.50
2022-09-28T07:25:20.498Z,4.50
2022-09-28T07:28:14.636Z,4.50
2022-09-28T07:31:03.454Z,4.50
2022-09-28T07:34:00.299Z,4.50
2022-09-28T07:36:36.630Z,4.60
2022-09-28T07:39:04.468Z,4.70
2022-09-28T07:41:35.128Z,4.70
2022-09-28T07:46:37.207Z,4.80
2022-09-28T07:49:12.378Z,5.00
2022-09-28T07:55:02.219Z,5.40
2022-09-28T07:58:05.155Z,5.60
2022-09-28T08:00:50.399Z,5.80
2022-09-28T08:03:20.258Z,6.00
2022-09-28T08:05:48.205Z,6.20
2022-09-28T08:08:16.506Z,6.20
2022-09-28T08:10:47.292Z,6.50
2022-09-28T08:19:15.206Z,7.60
2022-09-28T08:21:45.562Z,7.70
2022-09-28T08:24:15.822Z,7.80
2022-09-28T08:26:44.744Z,7.90
2022-09-28T08:29:16.219Z,7.90
2022-09-28T08:31:52.468Z,8.00
2022-09-28T08:34:41.562Z,8.00
2022-09-28T08:40:20.219Z,8.10
2022-09-28T08:43:07.419Z,8.20
2022-09-28T08:46:10.202Z,8.30
2022-09-28T08:49:24.854Z,8.30
2022-09-28T08:52:17.989Z,8.50
2022-09-28T08:55:31.289Z,8.50
2022-09-28T08:58:20.446Z,8.60
2022-09-28T09:00:54.296Z,8.60
2022-09-28T09:03:42.626Z,8.70
2022-09-28T09:07:04.662Z,8.80
2022-09-28T09:10:00.017Z,8.90
2022-09-28T09:12:36.975Z,8.90
2022-09-28T09:15:31.293Z,9.00
2022-09-28T09:18:14.589Z,9.10
2022-09-28T09:21:10.436Z,9.20
2022-09-28T09:24:02.926Z,9.20
2022-09-28T09:26:39.652Z,9.20
2022-09-28T09:29:36.573Z,9.40
2022-09-28T09:32:08.233Z,9.40
2022-09-28T09:34:46.947Z,9.40
2022-09-28T09:37:58.625Z,9.50
2022-09-28T09:41:10.351Z,9.60
2022-09-28T09:44:11.875Z,9.70
2022-09-28T09:47:04.898Z,9.80
2022-09-28T09:49:45.853Z,9.80
2022-09-28T09:55:04.132Z,10.00
2022-09-28T09:57:53.157Z,10.10
2022-09-28T10:00:47.458Z,10.20
2022-09-28T10:03:31.191Z,10.30
2022-09-28T10:06:36.425Z,10.50
2022-09-28T10:09:13.617Z,10.50
2022-09-28T10:11:44.870Z,10.60
2022-09-28T10:14:21.526Z,10.70
2022-09-28T10:17:03.951Z,10.80
2022-09-28T10:20:04.237Z,10.80
2022-09-28T10:22:56.676Z,10.90
2022-09-28T10:25:25.198Z,10.90
2022-09-28T10:27:52.902Z,11.00
2022-09-28T10:30:24.723Z,11.00
2022-09-28T10:32:59.292Z,11.10
2022-09-28T10:35:42.164Z,11.10
2022-09-28T10:38:19.018Z,11.20
2022-09-28T10:40:59.482Z,11.20
2022-09-28T10:43:50.712Z,11.30
2022-09-28T10:46:24.430Z,11.30
2022-09-28T10:49:15.663Z,11.30
2022-09-28T10:51:56.612Z,11.50
2022-09-28T10:54:38.804Z,11.60
2022-09-28T10:57:42.915Z,11.70
2022-09-28T11:00:34.766Z,11.80
2022-09-28T11:03:26.595Z,11.80
2022-09-28T11:06:00.190Z,11.80
2022-09-28T11:08:45.823Z,11.80
2022-09-28T11:11:22.226Z,11.90
2022-09-28T11:14:01.453Z,11.90
2022-09-28T11:16:35.103Z,11.90
2022-09-28T11:19:28.959Z,12.10
2022-09-28T11:21:56.516Z,12.10
2022-09-28T11:24:33.342Z,12.40
2022-09-28T11:27:04.358Z,12.50
2022-09-28T11:29:43.041Z,12.50
2022-09-28T11:32:25.697Z,12.60
2022-09-28T11:35:28.094Z,12.50
2022-09-28T11:38:15.402Z,12.50
2022-09-28T11:41:25.962Z,12.70
2022-09-28T11:44:15.365Z,12.60
2022-09-28T11:46:46.241Z,12.70
2022-09-28T11:49:20.061Z,12.80
2022-09-28T11:51:49.815Z,13.00
2022-09-28T11:54:38.688Z,13.00
2022-09-28T11:57:14.863Z,13.10
2022-09-28T12:00:01.252Z,13.10
2022-09-28T12:02:35.478Z,13.20
2022-09-28T12:05:27.041Z,13.40
2022-09-28T12:08:20.842Z,13.60
2022-09-28T12:11:39.197Z,13.60
2022-09-28T12:14:34.411Z,13.90
2022-09-28T12:17:23.809Z,14.00
2022-09-28T12:19:58.568Z,14.00
2022-09-28T12:22:34.954Z,13.80
2022-09-28T12:25:05.135Z,13.50
2022-09-28T12:27:43.796Z,13.30
2022-09-28T12:30:25.220Z,13.30
2022-09-28T12:33:04.100Z,13.10
2022-09-28T12:35:34.749Z,13.00
2022-09-28T12:38:21.279Z,13.00
2022-09-28T12:41:07.849Z,13.00
2022-09-28T12:44:09.950Z,13.30
2022-09-28T12:46:46.790Z,13.50
2022-09-28T12:52:32.607Z,13.10
2022-09-28T12:55:17.411Z,12.90
2022-09-28T12:58:22.305Z,13.00
2022-09-28T13:01:22.145Z,13.40
2022-09-28T13:04:27.235Z,13.60
2022-09-28T13:07:15.995Z,13.90
2022-09-28T13:10:14.748Z,14.10
2022-09-28T13:13:13.438Z,13.80
2022-09-28T13:15:43.924Z,13.90
2022-09-28T13:18:16.185Z,13.90
2022-09-28T13:21:10.053Z,13.90
2022-09-28T13:23:47.092Z,13.90
2022-09-28T13:26:17.637Z,13.90
2022-09-28T13:28:47.185Z,14.10
2022-09-28T13:31:22.181Z,14.30
2022-09-28T13:33:51.374Z,14.40
2022-09-28T13:36:28.012Z,14.70
2022-09-28T13:38:59.543Z,14.90
2022-09-28T13:41:36.691Z,15.10
2022-09-28T13:44:07.059Z,15.10
2022-09-28T13:47:12.708Z,14.90
2022-09-28T13:50:08.005Z,15.00
2022-09-28T13:52:50.569Z,15.20
2022-09-28T13:55:27.011Z,15.70
2022-09-28T13:58:15.596Z,15.90
2022-09-28T14:01:05.005Z,15.70
2022-09-28T14:03:54.707Z,15.40
2022-09-28T14:06:31.974Z,14.90
2022-09-28T14:09:09.152Z,14.60
2022-09-28T14:14:11.949Z,15.40
2022-09-28T14:16:41.137Z,16.00
2022-09-28T14:21:47.983Z,16.70
2022-09-28T14:24:26.614Z,16.10
2022-09-28T14:26:54.124Z,15.60
2022-09-28T14:29:28.481Z,15.40
2022-09-28T14:32:09.057Z,15.50
2022-09-28T14:34:41.241Z,15.90
2022-09-28T14:37:46.020Z,16.50
2022-09-28T14:40:36.714Z,16.60
2022-09-28T14:43:26.340Z,16.10
2022-09-28T14:46:20.082Z,15.40
2022-09-28T14:48:54.451Z,14.90
2022-09-28T14:51:30.381Z,14.50
2022-09-28T14:54:03.485Z,14.20
2022-09-28T14:56:40.315Z,14.10
2022-09-28T14:59:18.382Z,14.60
2022-09-28T15:01:52.194Z,15.10
2022-09-28T15:04:20.805Z,15.50
2022-09-28T15:06:50.531Z,15.90
2022-09-28T15:09:35.365Z,16.10
2022-09-28T15:12:10.263Z,16.20
2022-09-28T15:14:51.326Z,16.40
2022-09-28T15:17:29.327Z,16.50
2022-09-28T15:20:06.239Z,17.00
2022-09-28T15:22:34.158Z,17.20
2022-09-28T15:25:03.085Z,17.30
2022-09-28T15:27:36.478Z,17.60
2022-09-28T15:30:25.329Z,17.80
2022-09-28T15:32:56.739Z,17.90
2022-09-28T15:35:28.453Z,18.10
2022-09-28T15:37:56.317Z,15.20
2022-09-28T15:40:33.628Z,18.30
2022-09-28T15:43:02.579Z,17.60
2022-09-28T15:45:40.004Z,16.50
2022-09-28T15:48:32.920Z,15.50
2022-09-28T15:51:10.266Z,14.80
2022-09-28T15:53:56.210Z,14.70
2022-09-28T15:56:24.764Z,13.50
2022-09-28T15:59:18.870Z,15.00
2022-09-28T16:01:47.746Z,14.80
2022-09-28T16:04:34.052Z,14.40
2022-09-28T16:07:20.790Z,14.20
2022-09-28T16:10:12.047Z,14.60
2022-09-28T16:12:56.532Z,15.40
2022-09-28T16:15:37.147Z,16.00
2022-09-28T16:18:22.049Z,15.70
2022-09-28T16:20:52.665Z,15.10
2022-09-28T16:23:21.982Z,14.60
2022-09-28T16:25:52.577Z,14.20
2022-09-28T16:28:38.247Z,14.00
2022-09-28T16:31:15.065Z,14.10
2022-09-28T16:33:52.510Z,14.80
2022-09-28T16:36:22.374Z,15.20
2022-09-28T16:38:50.168Z,14.90
2022-09-28T16:41:21.791Z,14.80
2022-09-28T16:43:55.191Z,14.90
2022-09-28T16:46:29.703Z,15.10
2022-09-28T16:49:00.117Z,15.40
2022-09-28T16:54:34.767Z,15.80
2022-09-28T16:57:04.289Z,15.70
2022-09-28T16:59:32.610Z,15.30
2022-09-28T17:02:00.443Z,14.80
2022-09-28T17:04:28.279Z,14.30
2022-09-28T17:06:56.539Z,13.80
2022-09-28T17:09:24.276Z,13.40
2022-09-28T17:11:57.050Z,13.10
2022-09-28T17:17:13.740Z,12.80
2022-09-28T17:19:42.406Z,12.70
2022-09-28T17:22:10.541Z,12.70
2022-09-28T17:24:38.115Z,12.50
2022-09-28T17:27:07.039Z,12.50
2022-09-28T17:29:34.657Z,12.40
2022-09-28T17:32:02.753Z,12.40
2022-09-28T17:34:30.770Z,12.30
2022-09-28T17:36:58.624Z,12.40
2022-09-28T17:39:26.561Z,12.20
2022-09-28T17:41:54.300Z,12.20
2022-09-28T17:46:51.242Z,12.10
2022-09-28T17:51:47.438Z,12.00
2022-09-28T17:54:16.951Z,12.10
2022-09-28T17:56:44.801Z,12.10
2022-09-28T17:59:18.192Z,12.00
2022-09-28T18:01:45.973Z,12.00
2022-09-28T18:04:33.275Z,12.00
2022-09-28T18:12:03.973Z,12.00
2022-09-28T18:14:31.414Z,11.90
2022-09-28T18:19:31.170Z,11.90
2022-09-28T18:22:01.520Z,11.80
2022-09-28T18:24:29.674Z,11.80
2022-09-28T18:29:25.274Z,11.70
2022-09-28T18:31:53.032Z,11.80
2022-09-28T18:36:48.451Z,11.60
2022-09-28T18:39:16.162Z,11.60
2022-09-28T18:44:12.165Z,11.50
2022-09-28T18:46:42.850Z,11.50
2022-09-28T18:49:10.662Z,11.40
2022-09-28T18:56:37.884Z,11.30
2022-09-28T18:59:11.738Z,11.30
2022-09-28T19:01:41.855Z,11.20
2022-09-28T19:04:11.578Z,11.20
2022-09-28T19:06:42.069Z,11.20
2022-09-28T19:11:35.201Z,11.10
2022-09-28T19:14:03.690Z,11.10
2022-09-28T19:16:34.237Z,11.10
2022-09-28T19:19:03.366Z,11.10
2022-09-28T19:21:31.383Z,11.00
2022-09-28T19:24:03.038Z,11.00
2022-09-28T19:26:31.368Z,10.90
2022-09-28T19:29:00.297Z,10.90
2022-09-28T19:31:30.337Z,10.80
2022-09-28T19:33:58.436Z,10.80
2022-09-28T19:36:28.676Z,10.80
2022-09-28T19:38:58.197Z,10.80
2022-09-28T19:42:06.240Z,10.70
2022-09-28T19:44:35.766Z,10.80
2022-09-28T19:47:10.162Z,10.70
2022-09-28T19:49:40.744Z,10.80
2022-09-28T19:52:16.999Z,10.80
2022-09-28T19:54:55.799Z,10.80
2022-09-28T19:57:30.547Z,10.90
2022-09-28T20:00:02.773Z,10.90
2022-09-28T20:02:37.457Z,10.90
2022-09-28T20:05:06.902Z,10.70
2022-09-28T20:07:36.664Z,10.80
2022-09-28T20:10:05.720Z,10.80
2022-09-28T20:12:34.900Z,10.80
2022-09-28T20:15:03.566Z,10.80
2022-09-28T20:17:32.756Z,10.80
2022-09-28T20:20:03.831Z,10.80
2022-09-28T20:22:32.700Z,10.80
2022-09-28T20:25:03.061Z,10.70
2022-09-28T20:27:31.993Z,10.70
2022-09-28T20:30:00.522Z,10.70
2022-09-28T20:32:32.686Z,10.70
2022-09-28T20:35:02.309Z,10.70
2022-09-28T20:40:00.963Z,10.50
2022-09-28T20:42:30.147Z,10.50
2022-09-28T20:47:25.938Z,10.40
2022-09-28T20:49:53.508Z,10.30
2022-09-28T20:52:21.071Z,10.20
2022-09-28T20:54:48.616Z,10.20
2022-09-28T20:57:19.127Z,10.10
2022-09-28T20:59:50.990Z,10.10
2022-09-28T21:02:22.518Z,10.10
2022-09-28T21:04:50.169Z,10.00
2022-09-28T21:07:17.834Z,10.00
2022-09-28T21:09:45.371Z,10.00
2022-09-28T21:12:13.821Z,10.00
2022-09-28T21:14:41.392Z,9.90
2022-09-28T21:17:08.946Z,10.00
2022-09-28T21:22:04.647Z,10.00
2022-09-28T21:24:32.208Z,10.00
2022-09-28T21:26:59.907Z,10.00
2022-09-28T21:31:55.762Z,10.00
2022-09-28T21:34:24.465Z,9.90
2022-09-28T21:36:52.645Z,9.90
2022-09-28T21:41:48.441Z,10.00
2022-09-28T21:44:16.657Z,10.00
2022-09-28T21:46:44.421Z,9.90
2022-09-28T21:49:13.443Z,10.00
2022-09-28T21:51:41.220Z,9.90
2022-09-28T21:54:08.814Z,9.90
2022-09-28T21:56:36.738Z,9.80
2022-09-28T21:59:04.295Z,9.80
2022-09-28T22:01:32.319Z,9.90
2022-09-28T22:04:00.183Z,9.80
2022-09-28T22:06:28.350Z,9.80
2022-09-28T22:08:56.913Z,9.70
2022-09-28T22:11:27.480Z,9.70
2022-09-28T22:13:59.710Z,9.70
2022-09-28T22:16:30.390Z,9.70
2022-09-28T22:18:59.575Z,9.70
2022-09-28T22:21:32.938Z,9.60
2022-09-28T22:24:06.666Z,9.60
2022-09-28T22:26:36.394Z,9.60
2022-09-28T22:29:09.280Z,9.60
2022-09-28T22:34:31.759Z,9.60
2022-09-28T22:36:59.661Z,9.50
2022-09-28T22:39:27.303Z,9.60
2022-09-28T22:41:55.155Z,9.50
2022-09-28T22:44:22.802Z,9.50
2022-09-28T22:46:50.611Z,9.50
2022-09-28T22:49:18.523Z,9.50
2022-09-28T22:51:46.366Z,9.50
2022-09-28T22:54:16.764Z,9.60
2022-09-28T22:56:44.386Z,9.60
2022-09-28T22:59:12.505Z,9.60
2022-09-28T23:01:40.166Z,9.60
2022-09-28T23:04:09.609Z,9.60
2022-09-28T23:06:37.317Z,9.60
2022-09-28T23:09:05.251Z,9.60
2022-09-28T23:11:32.885Z,9.50
2022-09-28T23:14:00.882Z,9.50
2022-09-28T23:16:30.077Z,9.60
2022-09-28T23:18:58.193Z,9.60
2022-09-28T23:21:27.422Z,9.60
2022-09-28T23:24:01.692Z,9.60
2022-09-28T23:26:34.401Z,9.60
2022-09-28T23:29:02.029Z,9.60
2022-09-28T23:31:32.113Z,9.60
2022-09-28T23:34:01.820Z,9.60
2022-09-28T23:36:30.106Z,9.70
2022-09-28T23:38:57.838Z,9.70
2022-09-28T23:41:25.766Z,9.70
2022-09-28T23:43:54.016Z,9.70
2022-09-28T23:46:21.919Z,11.90
2022-09-28T23:48:50.234Z,9.90
2022-09-28T23:53:46.431Z,9.90
2022-09-28T23:56:14.829Z,9.90
2022-09-28T23:58:42.339Z,9.80
